createdAt,value
2017-12-22T00:01:02.340Z,6.70
2017-12-22T00:03:30.881Z,6.70
2017-12-22T00:05:59.269Z,6.70
2017-12-22T00:08:27.657Z,6.70
2017-12-22T00:10:57.005Z,6.70
2017-12-22T00:13:25.426Z,6.70
2017-12-22T00:15:54.144Z,6.70
2017-12-22T00:18:22.644Z,6.60
2017-12-22T00:20:51.804Z,6.60
2017-12-22T00:23:20.185Z,6.60
2017-12-22T00:25:49.473Z,6.60
2017-12-22T00:28:18.671Z,6.60
2017-12-22T00:30:47.060Z,6.60
2017-12-22T00:33:16.358Z,6.60
2017-12-22T00:35:45.550Z,6.70
2017-12-22T00:38:14.704Z,6.70
2017-12-22T00:40:43.382Z,6.60
2017-12-22T00:43:11.754Z,6.70
2017-12-22T00:45:52.060Z,6.70
2017-12-22T00:48:20.434Z,6.70
2017-12-22T00:50:48.827Z,6.70
2017-12-22T00:53:18.318Z,6.70
2017-12-22T00:55:47.313Z,6.70
2017-12-22T00:58:15.685Z,6.70
2017-12-22T01:00:44.432Z,6.70
2017-12-22T01:03:12.877Z,6.80
2017-12-22T01:05:42.020Z,6.80
2017-12-22T01:08:10.514Z,6.80
2017-12-22T01:10:38.901Z,6.80
2017-12-22T01:13:07.288Z,6.70
2017-12-22T01:15:42.294Z,6.80
2017-12-22T01:18:16.387Z,6.70
2017-12-22T01:20:44.848Z,6.70
2017-12-22T01:23:13.988Z,6.70
2017-12-22T01:25:42.420Z,6.70
2017-12-22T01:28:11.879Z,6.70
2017-12-22T01:30:40.259Z,6.80
2017-12-22T01:33:08.664Z,6.80
2017-12-22T01:35:37.188Z,6.90
2017-12-22T01:38:05.603Z,6.80
2017-12-22T01:40:33.978Z,6.80
2017-12-22T01:43:03.335Z,6.80
2017-12-22T01:45:31.744Z,6.80
2017-12-22T01:48:00.132Z,6.80
2017-12-22T01:50:28.594Z,6.80
2017-12-22T01:52:57.020Z,6.80
2017-12-22T01:55:25.391Z,6.80
2017-12-22T01:57:54.602Z,6.80
2017-12-22T02:00:23.759Z,6.80
2017-12-22T02:02:52.184Z,6.80
2017-12-22T02:05:21.503Z,6.80
2017-12-22T02:07:49.885Z,6.80
2017-12-22T02:10:18.266Z,6.80
2017-12-22T02:12:46.695Z,6.80
2017-12-22T02:15:15.209Z,6.80
2017-12-22T02:17:44.365Z,6.80
2017-12-22T02:20:13.049Z,6.80
2017-12-22T02:22:41.433Z,6.80
2017-12-22T02:25:09.953Z,6.90
2017-12-22T02:27:39.571Z,6.90
2017-12-22T02:30:07.969Z,6.90
2017-12-22T02:32:36.372Z,6.90
2017-12-22T02:35:04.966Z,6.90
2017-12-22T02:37:33.373Z,6.90
2017-12-22T02:40:02.745Z,6.90
2017-12-22T02:42:31.184Z,6.90
2017-12-22T02:44:59.604Z,6.90
2017-12-22T02:47:28.038Z,6.90
2017-12-22T02:49:56.627Z,6.90
2017-12-22T02:52:25.028Z,7.00
2017-12-22T02:54:53.403Z,7.00
2017-12-22T02:57:21.916Z,6.90
2017-12-22T02:59:50.294Z,7.00
2017-12-22T03:02:18.695Z,7.10
2017-12-22T03:04:48.115Z,7.10
2017-12-22T03:07:16.495Z,7.10
2017-12-22T03:09:45.643Z,7.10
2017-12-22T03:12:14.386Z,7.10
2017-12-22T03:14:42.786Z,7.10
2017-12-22T03:17:11.176Z,7.10
2017-12-22T03:19:39.894Z,7.10
2017-12-22T03:22:08.403Z,7.10
2017-12-22T03:24:37.551Z,7.10
2017-12-22T03:27:06.033Z,7.10
2017-12-22T03:29:34.446Z,7.20
2017-12-22T03:32:03.598Z,7.10
2017-12-22T03:34:32.056Z,7.10
2017-12-22T03:37:00.452Z,7.10
2017-12-22T03:39:28.872Z,7.10
2017-12-22T03:41:58.445Z,7.10
2017-12-22T03:44:26.840Z,7.10
2017-12-22T03:46:55.251Z,7.10
2017-12-22T03:49:24.428Z,7.10
2017-12-22T03:51:52.825Z,7.10
2017-12-22T03:54:21.988Z,7.10
2017-12-22T03:56:50.561Z,7.10
2017-12-22T03:59:19.016Z,7.10
2017-12-22T04:01:47.389Z,7.10
2017-12-22T04:04:16.712Z,7.10
2017-12-22T04:06:45.289Z,7.00
2017-12-22T04:09:13.667Z,7.10
2017-12-22T04:11:42.229Z,7.00
2017-12-22T04:14:10.610Z,7.00
2017-12-22T04:16:39.023Z,7.00
2017-12-22T04:19:07.498Z,7.00
2017-12-22T04:21:35.890Z,7.00
2017-12-22T04:24:04.639Z,7.10
2017-12-22T04:26:33.064Z,7.10
2017-12-22T04:29:01.443Z,7.10
2017-12-22T04:31:29.851Z,7.10
2017-12-22T04:33:59.174Z,7.10
2017-12-22T04:36:27.539Z,7.10
2017-12-22T04:38:56.693Z,7.10
2017-12-22T04:41:25.114Z,7.00
2017-12-22T04:43:54.400Z,7.10
2017-12-22T04:46:22.766Z,7.10
2017-12-22T04:48:51.343Z,7.10
2017-12-22T04:51:19.729Z,7.10
2017-12-22T04:53:48.126Z,7.20
2017-12-22T04:56:17.351Z,7.10
2017-12-22T04:58:45.743Z,7.10
2017-12-22T05:01:14.159Z,7.10
2017-12-22T05:03:42.594Z,7.10
2017-12-22T05:06:10.976Z,7.10
2017-12-22T05:08:39.419Z,7.20
2017-12-22T05:11:08.688Z,7.20
2017-12-22T05:13:37.068Z,7.10
2017-12-22T05:16:05.441Z,7.20
2017-12-22T05:18:33.856Z,7.20
2017-12-22T05:21:03.012Z,7.20
2017-12-22T05:23:31.403Z,7.20
2017-12-22T05:26:00.155Z,7.20
2017-12-22T05:28:28.527Z,7.20
2017-12-22T05:30:56.925Z,7.20
2017-12-22T05:33:25.462Z,7.20
2017-12-22T05:35:54.611Z,7.20
2017-12-22T05:38:23.000Z,7.20
2017-12-22T05:40:51.719Z,7.20
2017-12-22T05:43:20.868Z,7.20
2017-12-22T05:45:49.311Z,7.20
2017-12-22T05:48:17.731Z,7.30
2017-12-22T05:50:46.107Z,7.20
2017-12-22T05:53:14.492Z,7.20
2017-12-22T05:55:42.986Z,7.20
2017-12-22T05:58:11.398Z,7.20
2017-12-22T06:00:40.559Z,7.20
2017-12-22T06:03:09.075Z,7.20
2017-12-22T06:05:38.230Z,7.20
2017-12-22T06:08:06.618Z,7.20
2017-12-22T06:10:35.106Z,7.20
2017-12-22T06:13:03.514Z,7.20
2017-12-22T06:15:32.669Z,7.20
2017-12-22T06:18:01.181Z,7.20
2017-12-22T06:20:30.343Z,7.10
2017-12-22T06:22:58.767Z,7.10
2017-12-22T06:25:28.240Z,7.10
2017-12-22T06:27:56.819Z,7.10
2017-12-22T06:30:26.030Z,7.10
2017-12-22T06:32:54.504Z,7.10
2017-12-22T06:35:22.914Z,7.10
2017-12-22T06:37:52.114Z,7.10
2017-12-22T06:40:21.671Z,7.10
2017-12-22T06:42:50.081Z,7.10
2017-12-22T06:45:18.518Z,7.10
2017-12-22T06:47:47.182Z,7.10
2017-12-22T06:50:15.572Z,7.10
2017-12-22T06:52:43.961Z,7.00
2017-12-22T06:55:12.467Z,7.10
2017-12-22T06:57:40.848Z,7.10
2017-12-22T07:00:09.269Z,7.00
2017-12-22T07:02:38.468Z,7.10
2017-12-22T07:05:07.631Z,7.10
2017-12-22T07:07:36.028Z,7.10
2017-12-22T07:10:05.313Z,7.10
2017-12-22T07:12:33.779Z,7.10
2017-12-22T07:15:02.158Z,7.10
2017-12-22T07:17:30.607Z,7.10
2017-12-22T07:19:58.991Z,7.10
2017-12-22T07:22:27.444Z,7.10
2017-12-22T07:24:56.039Z,7.10
2017-12-22T07:27:24.455Z,7.20
2017-12-22T07:29:52.995Z,7.20
2017-12-22T07:32:21.554Z,7.10
2017-12-22T07:34:49.922Z,7.10
2017-12-22T07:37:18.311Z,7.20
2017-12-22T07:39:47.570Z,7.20
2017-12-22T07:42:15.986Z,7.20
2017-12-22T07:44:44.367Z,7.20
2017-12-22T07:47:13.648Z,7.20
2017-12-22T07:49:42.441Z,7.20
2017-12-22T07:52:12.277Z,7.20
2017-12-22T07:54:40.861Z,7.20
2017-12-22T07:57:10.091Z,7.20
2017-12-22T07:59:38.577Z,7.20
2017-12-22T08:02:07.065Z,7.20
2017-12-22T08:04:35.450Z,7.30
2017-12-22T08:07:03.877Z,7.20
2017-12-22T08:09:33.210Z,7.30
2017-12-22T08:12:01.728Z,7.20
2017-12-22T08:14:30.181Z,7.30
2017-12-22T08:16:58.926Z,7.30
2017-12-22T08:19:28.096Z,7.20
2017-12-22T08:21:56.513Z,7.20
2017-12-22T08:24:25.293Z,7.20
2017-12-22T08:26:55.575Z,7.20
2017-12-22T08:29:23.981Z,7.20
2017-12-22T08:31:52.897Z,7.20
2017-12-22T08:34:22.566Z,7.20
2017-12-22T08:36:50.975Z,7.20
2017-12-22T08:39:19.761Z,7.30
2017-12-22T08:41:48.172Z,7.20
2017-12-22T08:44:17.337Z,7.20
2017-12-22T08:46:46.628Z,7.10
2017-12-22T08:49:15.024Z,7.10
2017-12-22T08:51:44.323Z,7.30
2017-12-22T08:54:13.143Z,7.20
2017-12-22T08:56:41.520Z,7.40
2017-12-22T08:59:09.930Z,7.20
2017-12-22T09:01:38.494Z,7.30
2017-12-22T09:04:06.914Z,7.30
2017-12-22T09:06:35.304Z,7.20
2017-12-22T09:09:04.795Z,7.20
2017-12-22T09:11:33.983Z,7.30
2017-12-22T09:14:02.440Z,7.30
2017-12-22T09:16:31.102Z,7.20
2017-12-22T09:18:59.500Z,7.20
2017-12-22T09:21:27.913Z,7.20
2017-12-22T09:23:56.442Z,7.30
2017-12-22T09:26:25.538Z,7.30
2017-12-22T09:28:53.954Z,7.30
2017-12-22T09:31:22.530Z,7.30
2017-12-22T09:33:51.999Z,7.30
2017-12-22T09:36:20.385Z,7.30
2017-12-22T09:38:48.843Z,7.40
2017-12-22T09:41:18.078Z,7.20
2017-12-22T09:43:47.376Z,7.20
2017-12-22T09:46:15.951Z,7.40
2017-12-22T09:48:44.363Z,7.30
2017-12-22T09:51:13.642Z,7.30
2017-12-22T09:53:42.337Z,7.30
2017-12-22T09:56:10.822Z,7.30
2017-12-22T09:58:39.233Z,7.30
2017-12-22T10:01:07.892Z,7.20
2017-12-22T10:03:36.288Z,7.20
2017-12-22T10:06:06.250Z,7.30
2017-12-22T10:08:35.555Z,7.30
2017-12-22T10:11:05.231Z,7.30
2017-12-22T10:13:33.642Z,7.30
2017-12-22T10:16:02.416Z,7.20
2017-12-22T10:18:30.892Z,7.30
2017-12-22T10:21:00.039Z,7.40
2017-12-22T10:23:28.691Z,7.40
2017-12-22T10:25:57.116Z,7.40
2017-12-22T10:28:25.664Z,7.50
2017-12-22T10:30:54.357Z,7.50
2017-12-22T10:33:23.436Z,7.60
2017-12-22T10:35:52.163Z,7.70
2017-12-22T10:38:20.687Z,7.70
2017-12-22T10:40:49.879Z,7.70
2017-12-22T10:43:19.072Z,7.60
2017-12-22T10:45:48.485Z,7.70
2017-12-22T10:48:16.880Z,7.70
2017-12-22T10:50:45.296Z,7.60
2017-12-22T10:53:13.888Z,7.50
2017-12-22T10:55:42.353Z,7.60
2017-12-22T10:58:10.736Z,7.60
2017-12-22T11:00:40.857Z,7.50
2017-12-22T11:03:09.332Z,7.50
2017-12-22T11:05:37.777Z,7.50
2017-12-22T11:08:06.668Z,7.50
2017-12-22T11:10:35.095Z,7.50
2017-12-22T11:13:03.520Z,7.50
2017-12-22T11:15:32.172Z,7.50
2017-12-22T11:18:02.493Z,7.60
2017-12-22T11:20:32.497Z,7.60
2017-12-22T11:23:01.072Z,7.50
2017-12-22T11:25:29.465Z,7.50
2017-12-22T11:27:57.909Z,7.50
2017-12-22T11:30:27.240Z,7.70
2017-12-22T11:32:56.785Z,7.70
2017-12-22T11:35:26.913Z,7.50
2017-12-22T11:37:55.961Z,7.50
2017-12-22T11:40:24.357Z,7.60
2017-12-22T11:42:52.843Z,7.60
2017-12-22T11:45:21.480Z,7.70
2017-12-22T11:47:49.873Z,7.70
2017-12-22T11:50:18.268Z,7.80
2017-12-22T11:52:46.878Z,7.90
2017-12-22T11:55:16.064Z,7.90
2017-12-22T11:57:44.868Z,7.90
2017-12-22T12:00:14.086Z,7.90
2017-12-22T12:02:42.552Z,7.90
2017-12-22T12:05:11.725Z,7.90
2017-12-22T12:07:40.190Z,7.90
2017-12-22T12:10:08.681Z,8.00
2017-12-22T12:12:37.167Z,8.00
2017-12-22T12:15:06.844Z,7.90
2017-12-22T12:17:36.012Z,7.90
2017-12-22T12:20:04.437Z,7.90
2017-12-22T12:22:33.532Z,8.00
2017-12-22T12:25:01.918Z,7.90
2017-12-22T12:27:30.332Z,7.80
2017-12-22T12:29:59.536Z,7.90
2017-12-22T12:32:28.723Z,7.80
2017-12-22T12:34:57.925Z,7.80
2017-12-22T12:37:26.484Z,7.80
2017-12-22T12:39:55.574Z,8.00
2017-12-22T12:42:24.060Z,7.90
2017-12-22T12:44:52.668Z,7.90
2017-12-22T12:47:22.249Z,8.00
2017-12-22T12:49:51.772Z,8.00
2017-12-22T12:52:21.300Z,8.00
2017-12-22T12:54:49.727Z,8.10
2017-12-22T12:57:18.206Z,8.10
2017-12-22T12:59:46.702Z,8.20
2017-12-22T13:02:15.129Z,8.10
2017-12-22T13:04:43.654Z,8.20
2017-12-22T13:07:12.246Z,8.20
2017-12-22T13:09:40.668Z,8.00
2017-12-22T13:12:09.925Z,8.10
2017-12-22T13:14:39.407Z,8.10
2017-12-22T13:17:08.453Z,8.20
2017-12-22T13:19:36.853Z,8.20
2017-12-22T13:22:05.397Z,8.20
2017-12-22T13:24:34.023Z,8.30
2017-12-22T13:27:03.208Z,8.40
2017-12-22T13:29:31.756Z,8.30
2017-12-22T13:32:00.360Z,8.40
2017-12-22T13:34:29.590Z,8.30
2017-12-22T13:36:58.111Z,8.30
2017-12-22T13:39:26.521Z,8.20
2017-12-22T13:41:56.092Z,8.00
2017-12-22T13:44:24.541Z,8.00
2017-12-22T13:46:53.056Z,8.30
2017-12-22T13:49:21.637Z,8.30
2017-12-22T13:51:50.458Z,8.30
2017-12-22T13:54:18.876Z,8.40
2017-12-22T13:56:51.225Z,8.50
2017-12-22T13:59:19.673Z,8.40
2017-12-22T14:01:48.348Z,8.50
2017-12-22T14:04:16.753Z,8.50
2017-12-22T14:06:45.317Z,8.40
2017-12-22T14:09:14.550Z,8.30
2017-12-22T14:11:43.730Z,8.40
2017-12-22T14:14:13.149Z,8.30
2017-12-22T14:16:42.330Z,8.30
2017-12-22T14:19:10.787Z,8.30
2017-12-22T14:21:40.121Z,8.20
2017-12-22T14:24:09.305Z,8.30
2017-12-22T14:26:39.454Z,8.30
2017-12-22T14:29:07.932Z,8.20
2017-12-22T14:31:36.587Z,8.20
2017-12-22T14:34:05.882Z,8.00
2017-12-22T14:36:34.341Z,8.10
2017-12-22T14:39:02.838Z,8.20
2017-12-22T14:41:31.235Z,8.10
2017-12-22T14:44:00.612Z,8.10
2017-12-22T14:46:28.994Z,8.10
2017-12-22T14:48:57.478Z,8.10
2017-12-22T14:51:26.408Z,8.10
2017-12-22T14:53:54.946Z,8.10
2017-12-22T14:56:23.978Z,8.20
2017-12-22T14:58:52.454Z,8.20
2017-12-22T15:01:20.855Z,8.00
2017-12-22T15:03:49.790Z,8.00
2017-12-22T15:06:18.405Z,8.00
2017-12-22T15:08:46.863Z,8.10
2017-12-22T15:11:15.333Z,8.00
2017-12-22T15:13:43.769Z,8.00
2017-12-22T15:16:12.206Z,7.90
2017-12-22T15:18:41.023Z,7.90
2017-12-22T15:21:11.282Z,7.80
2017-12-22T15:23:39.680Z,7.80
2017-12-22T15:26:09.162Z,7.90
2017-12-22T15:28:37.770Z,7.80
2017-12-22T15:31:06.326Z,7.90
2017-12-22T15:33:34.775Z,7.80
2017-12-22T15:36:03.227Z,7.90
2017-12-22T15:38:32.585Z,7.90
2017-12-22T15:41:01.110Z,7.80
2017-12-22T15:43:30.059Z,7.80
2017-12-22T15:45:58.934Z,7.80
2017-12-22T15:48:27.375Z,7.80
2017-12-22T15:50:55.937Z,7.80
2017-12-22T15:53:25.903Z,7.80
2017-12-22T15:55:54.399Z,7.70
2017-12-22T15:58:23.127Z,7.70
2017-12-22T16:00:52.572Z,7.80
2017-12-22T16:03:21.131Z,7.70
2017-12-22T16:05:51.807Z,7.70
2017-12-22T16:08:20.408Z,7.70
2017-12-22T16:10:48.917Z,7.70
2017-12-22T16:13:17.402Z,7.70
2017-12-22T16:15:45.801Z,7.80
2017-12-22T16:18:15.794Z,7.80
2017-12-22T16:20:44.378Z,7.80
2017-12-22T16:23:14.141Z,7.80
2017-12-22T16:25:43.028Z,7.80
2017-12-22T16:28:12.243Z,7.80
2017-12-22T16:30:40.998Z,7.80
2017-12-22T16:33:09.537Z,7.80
2017-12-22T16:35:38.024Z,7.80
2017-12-22T16:38:06.434Z,7.80
2017-12-22T16:40:35.592Z,7.80
2017-12-22T16:43:04.078Z,7.80
2017-12-22T16:45:32.483Z,7.70
2017-12-22T16:48:01.849Z,7.70
2017-12-22T16:50:30.586Z,7.70
2017-12-22T16:52:59.774Z,7.70
2017-12-22T16:55:28.946Z,7.70
2017-12-22T16:57:57.456Z,7.70
2017-12-22T17:00:26.654Z,7.70
2017-12-22T17:02:55.826Z,7.70
2017-12-22T17:05:24.344Z,7.70
2017-12-22T17:07:52.832Z,7.70
2017-12-22T17:10:21.227Z,7.70
2017-12-22T17:12:49.682Z,7.70
2017-12-22T17:15:18.103Z,7.60
2017-12-22T17:17:46.571Z,7.60
2017-12-22T17:20:15.485Z,7.60
2017-12-22T17:22:43.870Z,7.60
2017-12-22T17:25:12.272Z,7.60
2017-12-22T17:27:40.708Z,7.60
2017-12-22T17:30:09.173Z,7.60
2017-12-22T17:32:37.638Z,7.60
2017-12-22T17:35:06.129Z,7.60
2017-12-22T17:37:34.555Z,7.60
2017-12-22T17:40:02.970Z,7.50
2017-12-22T17:42:32.267Z,7.50
2017-12-22T17:45:01.992Z,7.50
2017-12-22T17:47:30.396Z,7.50
2017-12-22T17:49:59.599Z,7.50
2017-12-22T17:52:28.035Z,7.40
2017-12-22T17:54:57.948Z,7.30
2017-12-22T17:57:27.185Z,7.30
2017-12-22T17:59:55.585Z,7.30
2017-12-22T18:02:24.014Z,7.30
2017-12-22T18:04:52.676Z,7.20
2017-12-22T18:07:21.184Z,7.00
2017-12-22T18:09:49.902Z,7.00
2017-12-22T18:12:19.308Z,6.80
2017-12-22T18:14:47.775Z,6.80
2017-12-22T18:17:16.232Z,6.80
2017-12-22T18:19:44.771Z,6.70
2017-12-22T18:22:13.217Z,6.70
2017-12-22T18:24:41.631Z,6.60
2017-12-22T18:27:10.274Z,6.60
2017-12-22T18:29:38.717Z,6.60
2017-12-22T18:32:07.125Z,6.50
2017-12-22T18:34:35.858Z,6.50
2017-12-22T18:37:04.273Z,6.50
2017-12-22T18:39:33.437Z,6.50
2017-12-22T18:42:02.267Z,6.50
2017-12-22T18:44:31.426Z,6.40
2017-12-22T18:46:59.834Z,6.40
2017-12-22T18:49:29.139Z,6.20
2017-12-22T18:51:58.842Z,6.20
2017-12-22T18:54:28.112Z,6.20
2017-12-22T18:56:56.556Z,6.10
2017-12-22T18:59:25.009Z,6.10
2017-12-22T19:01:53.457Z,6.10
2017-12-22T19:04:22.065Z,6.20
2017-12-22T19:06:51.217Z,6.20
2017-12-22T19:09:19.625Z,6.20
2017-12-22T19:11:48.237Z,6.20
2017-12-22T19:14:17.433Z,6.30
2017-12-22T19:16:46.605Z,6.30
2017-12-22T19:19:16.116Z,6.30
2017-12-22T19:21:44.588Z,6.20
2017-12-22T19:24:13.018Z,6.20
2017-12-22T19:26:41.592Z,6.30
2017-12-22T19:29:10.030Z,6.30
2017-12-22T19:31:38.460Z,6.30
2017-12-22T19:34:07.042Z,6.30
2017-12-22T19:36:35.643Z,6.30
2017-12-22T19:39:04.096Z,6.40
2017-12-22T19:41:32.561Z,6.40
2017-12-22T19:44:01.829Z,6.40
2017-12-22T19:46:30.232Z,6.40
2017-12-22T19:48:58.691Z,6.40
2017-12-22T19:51:27.075Z,6.30
2017-12-22T19:53:55.880Z,6.30
2017-12-22T19:56:25.245Z,6.30
2017-12-22T19:58:53.636Z,6.30
2017-12-22T20:01:22.047Z,6.30
2017-12-22T20:03:51.353Z,6.40
2017-12-22T20:06:19.792Z,6.40
2017-12-22T20:08:48.198Z,6.40
2017-12-22T20:11:17.503Z,6.30
2017-12-22T20:13:46.864Z,6.30
2017-12-22T20:16:15.341Z,6.30
2017-12-22T20:18:43.801Z,6.20
2017-12-22T20:21:12.201Z,6.20
2017-12-22T20:23:40.594Z,6.20
2017-12-22T20:26:09.226Z,6.10
2017-12-22T20:28:37.688Z,6.20
2017-12-22T20:31:06.851Z,6.20
2017-12-22T20:33:35.301Z,6.20
2017-12-22T20:36:03.700Z,6.20
2017-12-22T20:38:32.152Z,6.20
2017-12-22T20:41:00.610Z,6.20
2017-12-22T20:43:29.797Z,6.20
2017-12-22T20:45:58.219Z,6.20
2017-12-22T20:48:26.792Z,6.10
2017-12-22T20:50:55.205Z,6.10
2017-12-22T20:53:23.620Z,6.10
2017-12-22T20:55:52.549Z,6.10
2017-12-22T20:58:20.984Z,6.10
2017-12-22T21:00:49.380Z,6.10
2017-12-22T21:03:18.728Z,6.00
2017-12-22T21:05:47.163Z,6.00
2017-12-22T21:08:16.304Z,5.90
2017-12-22T21:10:44.735Z,5.90
2017-12-22T21:13:13.902Z,5.90
2017-12-22T21:15:42.362Z,5.90
2017-12-22T21:18:10.801Z,5.90
2017-12-22T21:20:39.976Z,6.00
2017-12-22T21:23:08.365Z,6.00
2017-12-22T21:25:36.809Z,5.90
2017-12-22T21:28:05.231Z,5.90
2017-12-22T21:30:34.477Z,5.80
2017-12-22T21:33:02.961Z,5.80
2017-12-22T21:35:31.365Z,5.80
2017-12-22T21:37:59.827Z,5.90
2017-12-22T21:40:28.504Z,5.80
2017-12-22T21:42:56.933Z,5.80
2017-12-22T21:45:26.095Z,5.80
2017-12-22T21:47:54.660Z,5.80
2017-12-22T21:50:23.056Z,5.70
2017-12-22T21:52:51.472Z,5.80
2017-12-22T21:55:20.755Z,5.80
2017-12-22T21:57:49.300Z,5.70
2017-12-22T22:00:17.739Z,5.80
2017-12-22T22:02:47.001Z,5.80
2017-12-22T22:05:15.413Z,5.80
2017-12-22T22:07:43.823Z,5.80
2017-12-22T22:10:12.374Z,5.80
2017-12-22T22:12:41.579Z,5.80
2017-12-22T22:15:10.773Z,5.70
2017-12-22T22:17:40.143Z,5.60
2017-12-22T22:20:08.563Z,5.60
2017-12-22T22:22:37.721Z,5.60
2017-12-22T22:25:06.531Z,5.60
2017-12-22T22:27:34.906Z,5.60
2017-12-22T22:30:03.317Z,5.60
2017-12-22T22:32:31.925Z,5.60
2017-12-22T22:35:00.314Z,5.50
2017-12-22T22:37:28.713Z,5.50
2017-12-22T22:39:57.234Z,5.40
2017-12-22T22:42:25.718Z,5.40
2017-12-22T22:44:54.115Z,5.40
2017-12-22T22:47:22.743Z,5.30
2017-12-22T22:49:51.135Z,5.30
2017-12-22T22:52:19.536Z,5.20
2017-12-22T22:54:48.104Z,5.20
2017-12-22T22:57:17.311Z,5.10
2017-12-22T22:59:46.622Z,5.10
2017-12-22T23:02:15.175Z,5.10
2017-12-22T23:04:43.562Z,5.10
2017-12-22T23:07:12.798Z,5.00
2017-12-22T23:09:41.469Z,5.00
2017-12-22T23:12:09.903Z,5.10
2017-12-22T23:14:38.302Z,5.00
2017-12-22T23:17:06.871Z,5.00
2017-12-22T23:19:35.528Z,4.90
2017-12-22T23:22:03.924Z,5.00
2017-12-22T23:24:32.492Z,4.90
2017-12-22T23:27:00.897Z,4.80
2017-12-22T23:29:29.302Z,4.70
2017-12-22T23:31:58.608Z,4.50
2017-12-22T23:34:27.084Z,4.50
2017-12-22T23:36:55.509Z,4.40
2017-12-22T23:39:24.046Z,4.20
2017-12-22T23:41:53.199Z,4.10
2017-12-22T23:44:21.761Z,4.10
2017-12-22T23:46:51.131Z,4.20
2017-12-22T23:49:20.346Z,4.00
2017-12-22T23:51:48.798Z,4.00
2017-12-22T23:54:18.012Z,4.10
2017-12-22T23:56:46.458Z,4.10
2017-12-22T23:59:14.842Z,4.10
